Strona główna
METAR-TAF:

METAR-TAF

Lotnisko :

Port lotniczy Wołgograd

Wołgograd, Rosja

Szerokość geograficzna: 48-47N, Długość geograficzna: 044-22E, wysokość: 145 m

Aktualna obserwacja pogody

Raport powstał 22 minut temu, godzina 07:00 UTC
Wiatr 8 kt od zachód, zmienny między południowy zachód i północny zachód
Temperatura 32°C
Wilgotność 20%
Ciśnienie 1013 hPa
Widzialność 10 km lub więcej
Brak chmur poniżej 1500 m i brak chmur cumulonimbus

METAR: URWW 200700Z 28004MPS 230V320 CAVOK 32/06 Q1013 R24/010070 NOSIG

czas: 10:22 (07:22 UTC)

Prognoza

Raport powstał 2 godziny i 24 minut temu, godzina 04:58 UTC
Prognoza ważna od 20 godzina 06 UTC do 20 godzina 15 UTC
Wiatr 6 kt od zachód w porywach dochodzący do 16 kt
Widzialność 10 km lub więcej
Rozproszone chmury na wysokości 4000 ft, Cumulonimbus.
Przejściowo
od 20 godzina 06 UTC do 20 godzina 15 UTC
Wiatr 12 kt od północny zachód w porywach dochodzący do 23 kt

TAF: URWW 200458Z 2006/2015 28003G08MPS 9999 SCT040CB TEMPO 2006/2015 32006G12MPS

Obserwacja i prognoza pogody dla ponad 4000 lotnisk (raport METAR i TAF).

Dostępne stacje oznaczono żółtymi i czerwonymi punktami na mapie.

Najedź kursorem aby zobaczyć nazwę stacji.

Kliknij aby zobaczyć obserwacje i prognozy pogody.

Aby zmienić mapę: kliknij na zielony przycisk z czarnym krzyżykiem, aby powiększyć; na zielony przycisk z myślnikiem, aby pomniejszyć; na zielone strzałki, aby przejść do map sąsiednich.


METAR-TAF: